sensor_id;sensor_type;location;lat;lon;timestamp;temperature;humidity
47168;DHT22;32931;47.778;17.806;2022-12-18T00:01:13;-0.90;99.90
47168;DHT22;32931;47.778;17.806;2022-12-18T00:03:39;-1.00;99.90
47168;DHT22;32931;47.778;17.806;2022-12-18T00:06:06;-1.00;99.90
47168;DHT22;32931;47.778;17.806;2022-12-18T00:08:32;-1.00;99.90
47168;DHT22;32931;47.778;17.806;2022-12-18T00:11:15;-1.00;99.90
47168;DHT22;32931;47.778;17.806;2022-12-18T00:13:42;-1.00;99.90
47168;DHT22;32931;47.778;17.806;2022-12-18T00:16:11;-1.00;99.90
47168;DHT22;32931;47.778;17.806;2022-12-18T00:18:37;-1.00;99.90
47168;DHT22;32931;47.778;17.806;2022-12-18T00:21:06;-1.00;99.90
47168;DHT22;32931;47.778;17.806;2022-12-18T00:23:33;-1.00;99.90
47168;DHT22;32931;47.778;17.806;2022-12-18T00:26:04;-1.00;99.90
47168;DHT22;32931;47.778;17.806;2022-12-18T00:28:31;-1.00;99.90
47168;DHT22;32931;47.778;17.806;2022-12-18T00:31:08;-1.00;99.90
47168;DHT22;32931;47.778;17.806;2022-12-18T00:33:35;-1.00;99.90
47168;DHT22;32931;47.778;17.806;2022-12-18T00:36:07;-1.00;99.90
47168;DHT22;32931;47.778;17.806;2022-12-18T00:38:35;-1.00;99.90
47168;DHT22;32931;47.778;17.806;2022-12-18T00:41:01;-1.00;99.90
47168;DHT22;32931;47.778;17.806;2022-12-18T00:43:27;-1.00;99.90
47168;DHT22;32931;47.778;17.806;2022-12-18T00:45:54;-1.10;99.90
47168;DHT22;32931;47.778;17.806;2022-12-18T00:48:20;-1.10;99.90
47168;DHT22;32931;47.778;17.806;2022-12-18T00:50:50;-1.10;99.90
47168;DHT22;32931;47.778;17.806;2022-12-18T00:53:17;-1.10;99.90
47168;DHT22;32931;47.778;17.806;2022-12-18T00:55:44;-1.10;99.90
47168;DHT22;32931;47.778;17.806;2022-12-18T00:58:12;-1.10;99.90
47168;DHT22;32931;47.778;17.806;2022-12-18T01:00:38;-1.20;99.90
47168;DHT22;32931;47.778;17.806;2022-12-18T01:03:05;-1.20;99.90
47168;DHT22;32931;47.778;17.806;2022-12-18T01:05:32;-1.20;99.90
47168;DHT22;32931;47.778;17.806;2022-12-18T01:07:58;-1.30;99.90
47168;DHT22;32931;47.778;17.806;2022-12-18T01:10:25;-1.20;99.90
47168;DHT22;32931;47.778;17.806;2022-12-18T01:12:52;-1.30;99.90
47168;DHT22;32931;47.778;17.806;2022-12-18T01:15:18;-1.40;99.90
47168;DHT22;32931;47.778;17.806;2022-12-18T01:17:45;-1.40;99.90
47168;DHT22;32931;47.778;17.806;2022-12-18T01:20:12;-1.40;99.90
47168;DHT22;32931;47.778;17.806;2022-12-18T01:22:38;-1.40;99.90
47168;DHT22;32931;47.778;17.806;2022-12-18T01:25:05;-1.40;99.90
47168;DHT22;32931;47.778;17.806;2022-12-18T01:27:33;-1.40;99.90
47168;DHT22;32931;47.778;17.806;2022-12-18T01:29:59;-1.40;99.90
47168;DHT22;32931;47.778;17.806;2022-12-18T01:32:25;-1.40;99.90
47168;DHT22;32931;47.778;17.806;2022-12-18T01:34:51;-1.40;99.90
47168;DHT22;32931;47.778;17.806;2022-12-18T01:37:17;-1.50;99.90
47168;DHT22;32931;47.778;17.806;2022-12-18T01:39:43;-1.50;99.90
47168;DHT22;32931;47.778;17.806;2022-12-18T01:42:15;-1.40;99.90
47168;DHT22;32931;47.778;17.806;2022-12-18T01:49:51;-1.40;99.90
47168;DHT22;32931;47.778;17.806;2022-12-18T01:52:19;-1.40;99.90
47168;DHT22;32931;47.778;17.806;2022-12-18T01:54:47;-1.50;99.90
47168;DHT22;32931;47.778;17.806;2022-12-18T01:57:14;-1.40;99.90
47168;DHT22;32931;47.778;17.806;2022-12-18T01:59:43;-1.50;99.90
47168;DHT22;32931;47.778;17.806;2022-12-18T02:02:11;-1.50;99.90
47168;DHT22;32931;47.778;17.806;2022-12-18T02:04:37;-1.50;99.90
47168;DHT22;32931;47.778;17.806;2022-12-18T02:13:24;-1.50;99.90
47168;DHT22;32931;47.778;17.806;2022-12-18T02:18:27;-1.70;99.90
47168;DHT22;32931;47.778;17.806;2022-12-18T02:26:48;-1.70;99.90
47168;DHT22;32931;47.778;17.806;2022-12-18T02:29:20;-1.70;99.90
47168;DHT22;32931;47.778;17.806;2022-12-18T02:31:54;-1.80;99.90
47168;DHT22;32931;47.778;17.806;2022-12-18T02:34:25;-1.80;99.90
47168;DHT22;32931;47.778;17.806;2022-12-18T02:36:53;-1.70;99.90
47168;DHT22;32931;47.778;17.806;2022-12-18T02:39:21;-1.70;99.90
47168;DHT22;32931;47.778;17.806;2022-12-18T02:41:50;-1.80;99.90
47168;DHT22;32931;47.778;17.806;2022-12-18T02:44:17;-1.80;99.90
47168;DHT22;32931;47.778;17.806;2022-12-18T02:46:46;-1.80;99.90
47168;DHT22;32931;47.778;17.806;2022-12-18T03:00:05;-1.70;99.90
47168;DHT22;32931;47.778;17.806;2022-12-18T03:02:37;-1.70;99.90
47168;DHT22;32931;47.778;17.806;2022-12-18T03:07:57;-1.70;99.90
47168;DHT22;32931;47.778;17.806;2022-12-18T03:10:27;-1.70;99.90
47168;DHT22;32931;47.778;17.806;2022-12-18T03:13:04;-1.80;99.90
47168;DHT22;32931;47.778;17.806;2022-12-18T03:15:53;-1.80;99.90
47168;DHT22;32931;47.778;17.806;2022-12-18T03:18:25;-1.80;99.90
47168;DHT22;32931;47.778;17.806;2022-12-18T03:20:54;-1.80;99.90
47168;DHT22;32931;47.778;17.806;2022-12-18T03:23:25;-1.80;99.90
47168;DHT22;32931;47.778;17.806;2022-12-18T03:25:57;-1.80;99.90
47168;DHT22;32931;47.778;17.806;2022-12-18T03:28:25;-1.90;99.90
47168;DHT22;32931;47.778;17.806;2022-12-18T03:30:57;-1.90;99.90
47168;DHT22;32931;47.778;17.806;2022-12-18T03:33:28;-2.00;99.90
47168;DHT22;32931;47.778;17.806;2022-12-18T03:35:55;-1.90;99.90
47168;DHT22;32931;47.778;17.806;2022-12-18T03:38:21;-1.90;99.90
47168;DHT22;32931;47.778;17.806;2022-12-18T03:40:59;-1.90;99.90
47168;DHT22;32931;47.778;17.806;2022-12-18T03:46:07;-1.90;99.90
47168;DHT22;32931;47.778;17.806;2022-12-18T03:48:44;-1.90;99.90
47168;DHT22;32931;47.778;17.806;2022-12-18T03:54:06;-2.00;99.90
47168;DHT22;32931;47.778;17.806;2022-12-18T03:56:38;-1.90;99.90
47168;DHT22;32931;47.778;17.806;2022-12-18T03:59:06;-1.90;99.90
47168;DHT22;32931;47.778;17.806;2022-12-18T04:01:38;-1.90;99.90
47168;DHT22;32931;47.778;17.806;2022-12-18T04:04:06;-2.00;99.90
47168;DHT22;32931;47.778;17.806;2022-12-18T04:06:34;-2.00;99.90
47168;DHT22;32931;47.778;17.806;2022-12-18T04:09:01;-2.00;99.90
47168;DHT22;32931;47.778;17.806;2022-12-18T04:11:28;-2.00;99.90
47168;DHT22;32931;47.778;17.806;2022-12-18T04:13:58;-2.00;99.90
47168;DHT22;32931;47.778;17.806;2022-12-18T04:16:26;-1.90;99.90
47168;DHT22;32931;47.778;17.806;2022-12-18T04:18:52;-2.00;99.90
47168;DHT22;32931;47.778;17.806;2022-12-18T04:21:19;-2.00;99.90
47168;DHT22;32931;47.778;17.806;2022-12-18T04:23:45;-2.00;99.90
47168;DHT22;32931;47.778;17.806;2022-12-18T04:26:11;-2.10;99.90
47168;DHT22;32931;47.778;17.806;2022-12-18T04:28:37;-2.00;99.90
47168;DHT22;32931;47.778;17.806;2022-12-18T04:31:04;-2.00;99.90
47168;DHT22;32931;47.778;17.806;2022-12-18T04:33:31;-2.10;99.90
47168;DHT22;32931;47.778;17.806;2022-12-18T04:35:57;-2.10;99.90
47168;DHT22;32931;47.778;17.806;2022-12-18T04:38:23;-2.10;99.90
47168;DHT22;32931;47.778;17.806;2022-12-18T04:40:50;-2.10;99.90
47168;DHT22;32931;47.778;17.806;2022-12-18T04:43:16;-2.20;99.90
47168;DHT22;32931;47.778;17.806;2022-12-18T04:45:42;-2.10;99.90
47168;DHT22;32931;47.778;17.806;2022-12-18T04:48:08;-2.10;99.90
47168;DHT22;32931;47.778;17.806;2022-12-18T04:50:34;-2.10;99.90
47168;DHT22;32931;47.778;17.806;2022-12-18T04:53:00;-2.20;99.90
47168;DHT22;32931;47.778;17.806;2022-12-18T04:55:27;-2.20;99.90
47168;DHT22;32931;47.778;17.806;2022-12-18T04:57:53;-2.20;99.90
47168;DHT22;32931;47.778;17.806;2022-12-18T05:00:20;-2.20;99.90
47168;DHT22;32931;47.778;17.806;2022-12-18T05:02:46;-2.10;99.90
47168;DHT22;32931;47.778;17.806;2022-12-18T05:05:13;-2.20;99.90
47168;DHT22;32931;47.778;17.806;2022-12-18T05:07:39;-2.20;99.90
47168;DHT22;32931;47.778;17.806;2022-12-18T05:10:07;-2.20;99.90
47168;DHT22;32931;47.778;17.806;2022-12-18T05:12:33;-2.10;99.90
47168;DHT22;32931;47.778;17.806;2022-12-18T05:14:59;-2.10;99.90
47168;DHT22;32931;47.778;17.806;2022-12-18T05:17:25;-2.20;99.90
47168;DHT22;32931;47.778;17.806;2022-12-18T05:19:51;-2.20;99.90
47168;DHT22;32931;47.778;17.806;2022-12-18T05:22:17;-2.20;99.90
47168;DHT22;32931;47.778;17.806;2022-12-18T05:24:43;-2.20;99.90
47168;DHT22;32931;47.778;17.806;2022-12-18T05:27:10;-2.20;99.90
47168;DHT22;32931;47.778;17.806;2022-12-18T05:29:36;-2.20;99.90
47168;DHT22;32931;47.778;17.806;2022-12-18T05:32:02;-2.20;99.90
47168;DHT22;32931;47.778;17.806;2022-12-18T05:34:28;-2.20;99.90
47168;DHT22;32931;47.778;17.806;2022-12-18T05:36:54;-2.20;99.90
47168;DHT22;32931;47.778;17.806;2022-12-18T05:39:20;-2.30;99.90
47168;DHT22;32931;47.778;17.806;2022-12-18T05:41:46;-2.30;99.90
47168;DHT22;32931;47.778;17.806;2022-12-18T05:44:13;-2.30;99.90
47168;DHT22;32931;47.778;17.806;2022-12-18T05:46:39;-2.30;99.90
47168;DHT22;32931;47.778;17.806;2022-12-18T05:49:05;-2.40;99.90
47168;DHT22;32931;47.778;17.806;2022-12-18T05:51:31;-2.40;99.90
47168;DHT22;32931;47.778;17.806;2022-12-18T05:53:57;-2.40;99.90
47168;DHT22;32931;47.778;17.806;2022-12-18T05:56:23;-2.40;99.90
47168;DHT22;32931;47.778;17.806;2022-12-18T05:58:53;-2.50;99.90
47168;DHT22;32931;47.778;17.806;2022-12-18T06:01:22;-2.50;99.90
47168;DHT22;32931;47.778;17.806;2022-12-18T06:03:49;-2.50;99.90
47168;DHT22;32931;47.778;17.806;2022-12-18T06:06:21;-2.50;99.90
47168;DHT22;32931;47.778;17.806;2022-12-18T06:08:48;-2.50;99.90
47168;DHT22;32931;47.778;17.806;2022-12-18T06:11:18;-2.50;99.90
47168;DHT22;32931;47.778;17.806;2022-12-18T06:13:45;-2.50;99.90
47168;DHT22;32931;47.778;17.806;2022-12-18T06:16:12;-2.40;99.90
47168;DHT22;32931;47.778;17.806;2022-12-18T06:18:38;-2.50;99.90
47168;DHT22;32931;47.778;17.806;2022-12-18T06:21:05;-2.40;99.90
47168;DHT22;32931;47.778;17.806;2022-12-18T06:23:31;-2.40;99.90
47168;DHT22;32931;47.778;17.806;2022-12-18T06:25:57;-2.40;99.90
47168;DHT22;32931;47.778;17.806;2022-12-18T06:28:23;-2.50;99.90
47168;DHT22;32931;47.778;17.806;2022-12-18T06:30:49;-2.50;99.90
47168;DHT22;32931;47.778;17.806;2022-12-18T06:33:16;-2.50;99.90
47168;DHT22;32931;47.778;17.806;2022-12-18T06:35:42;-2.50;99.90
47168;DHT22;32931;47.778;17.806;2022-12-18T06:38:08;-2.50;99.90
47168;DHT22;32931;47.778;17.806;2022-12-18T06:40:37;-2.60;99.90
47168;DHT22;32931;47.778;17.806;2022-12-18T06:43:04;-2.60;99.90
47168;DHT22;32931;47.778;17.806;2022-12-18T06:45:31;-2.60;99.90
47168;DHT22;32931;47.778;17.806;2022-12-18T06:47:57;-2.60;99.90
47168;DHT22;32931;47.778;17.806;2022-12-18T06:50:23;-2.60;99.90
47168;DHT22;32931;47.778;17.806;2022-12-18T06:52:49;-2.60;99.90
47168;DHT22;32931;47.778;17.806;2022-12-18T06:55:15;-2.60;99.90
47168;DHT22;32931;47.778;17.806;2022-12-18T06:57:41;-2.50;99.90
47168;DHT22;32931;47.778;17.806;2022-12-18T07:00:08;-2.50;99.90
47168;DHT22;32931;47.778;17.806;2022-12-18T07:02:34;-2.50;99.90
47168;DHT22;32931;47.778;17.806;2022-12-18T07:05:01;-2.50;99.90
47168;DHT22;32931;47.778;17.806;2022-12-18T07:07:27;-2.50;99.90
47168;DHT22;32931;47.778;17.806;2022-12-18T07:09:54;-2.50;99.90
47168;DHT22;32931;47.778;17.806;2022-12-18T07:12:20;-2.60;99.90
47168;DHT22;32931;47.778;17.806;2022-12-18T07:14:46;-2.60;99.90
47168;DHT22;32931;47.778;17.806;2022-12-18T07:17:12;-2.50;99.90
47168;DHT22;32931;47.778;17.806;2022-12-18T07:19:38;-2.50;99.90
47168;DHT22;32931;47.778;17.806;2022-12-18T07:22:04;-2.50;99.90
47168;DHT22;32931;47.778;17.806;2022-12-18T07:24:32;-2.50;99.90
47168;DHT22;32931;47.778;17.806;2022-12-18T07:26:59;-2.50;99.90
47168;DHT22;32931;47.778;17.806;2022-12-18T07:29:25;-2.40;99.90
47168;DHT22;32931;47.778;17.806;2022-12-18T07:31:51;-2.40;99.90
47168;DHT22;32931;47.778;17.806;2022-12-18T07:34:18;-2.30;99.90
47168;DHT22;32931;47.778;17.806;2022-12-18T07:36:44;-2.30;99.90
47168;DHT22;32931;47.778;17.806;2022-12-18T07:39:13;-2.30;99.90
47168;DHT22;32931;47.778;17.806;2022-12-18T07:41:39;-2.20;99.90
47168;DHT22;32931;47.778;17.806;2022-12-18T07:44:12;-2.20;99.90
47168;DHT22;32931;47.778;17.806;2022-12-18T07:46:38;-2.20;99.90
47168;DHT22;32931;47.778;17.806;2022-12-18T07:49:05;-2.20;99.90
47168;DHT22;32931;47.778;17.806;2022-12-18T07:51:31;-2.20;99.90
47168;DHT22;32931;47.778;17.806;2022-12-18T07:53:57;-2.20;99.90
47168;DHT22;32931;47.778;17.806;2022-12-18T07:56:23;-2.20;99.90
47168;DHT22;32931;47.778;17.806;2022-12-18T07:58:49;-2.10;99.90
47168;DHT22;32931;47.778;17.806;2022-12-18T08:01:15;-2.10;99.90
47168;DHT22;32931;47.778;17.806;2022-12-18T08:03:42;-2.10;99.90
47168;DHT22;32931;47.778;17.806;2022-12-18T08:06:09;-2.10;99.90
47168;DHT22;32931;47.778;17.806;2022-12-18T08:08:35;-2.10;99.90
47168;DHT22;32931;47.778;17.806;2022-12-18T08:11:02;-2.00;99.90
47168;DHT22;32931;47.778;17.806;2022-12-18T08:13:28;-2.00;99.90
47168;DHT22;32931;47.778;17.806;2022-12-18T08:15:59;-2.00;99.90
47168;DHT22;32931;47.778;17.806;2022-12-18T08:18:26;-2.00;99.90
47168;DHT22;32931;47.778;17.806;2022-12-18T08:20:52;-2.00;99.90
47168;DHT22;32931;47.778;17.806;2022-12-18T08:23:18;-1.90;99.90
47168;DHT22;32931;47.778;17.806;2022-12-18T08:25:45;-1.90;99.90
47168;DHT22;32931;47.778;17.806;2022-12-18T08:28:11;-1.80;99.90
47168;DHT22;32931;47.778;17.806;2022-12-18T08:30:37;-1.80;99.90
47168;DHT22;32931;47.778;17.806;2022-12-18T08:33:03;-1.80;99.90
47168;DHT22;32931;47.778;17.806;2022-12-18T08:35:30;-1.80;99.90
47168;DHT22;32931;47.778;17.806;2022-12-18T08:37:56;-1.70;99.90
47168;DHT22;32931;47.778;17.806;2022-12-18T08:40:22;-1.70;99.90
47168;DHT22;32931;47.778;17.806;2022-12-18T08:42:48;-1.70;99.90
47168;DHT22;32931;47.778;17.806;2022-12-18T08:45:33;-1.60;99.90
47168;DHT22;32931;47.778;17.806;2022-12-18T08:48:00;-1.60;99.90
47168;DHT22;32931;47.778;17.806;2022-12-18T08:50:26;-1.50;99.90
47168;DHT22;32931;47.778;17.806;2022-12-18T08:52:52;-1.50;99.90
47168;DHT22;32931;47.778;17.806;2022-12-18T08:55:18;-1.50;99.90
47168;DHT22;32931;47.778;17.806;2022-12-18T08:57:48;-1.40;99.90
47168;DHT22;32931;47.778;17.806;2022-12-18T09:00:15;-1.40;99.90
47168;DHT22;32931;47.778;17.806;2022-12-18T09:02:41;-1.40;99.90
47168;DHT22;32931;47.778;17.806;2022-12-18T09:05:08;-1.30;99.90
47168;DHT22;32931;47.778;17.806;2022-12-18T09:07:34;-1.30;99.90
47168;DHT22;32931;47.778;17.806;2022-12-18T09:10:01;-1.20;99.90
47168;DHT22;32931;47.778;17.806;2022-12-18T09:12:27;-1.20;99.90
47168;DHT22;32931;47.778;17.806;2022-12-18T09:14:53;-1.10;99.90
47168;DHT22;32931;47.778;17.806;2022-12-18T09:17:19;-1.10;99.90
47168;DHT22;32931;47.778;17.806;2022-12-18T09:19:45;-1.00;99.90
47168;DHT22;32931;47.778;17.806;2022-12-18T09:22:11;-1.00;99.90
47168;DHT22;32931;47.778;17.806;2022-12-18T09:24:37;-1.00;99.90
47168;DHT22;32931;47.778;17.806;2022-12-18T09:27:04;-1.00;99.90
47168;DHT22;32931;47.778;17.806;2022-12-18T09:29:30;-1.00;99.90
47168;DHT22;32931;47.778;17.806;2022-12-18T09:31:56;-1.00;99.90
47168;DHT22;32931;47.778;17.806;2022-12-18T09:34:22;-0.90;99.90
47168;DHT22;32931;47.778;17.806;2022-12-18T09:36:49;-0.90;99.90
47168;DHT22;32931;47.778;17.806;2022-12-18T09:39:15;-0.90;99.90
47168;DHT22;32931;47.778;17.806;2022-12-18T09:41:43;-0.90;99.90
47168;DHT22;32931;47.778;17.806;2022-12-18T09:49:47;-0.70;99.90
47168;DHT22;32931;47.778;17.806;2022-12-18T09:52:37;-0.70;99.90
47168;DHT22;32931;47.778;17.806;2022-12-18T09:57:47;-0.60;99.90
47168;DHT22;32931;47.778;17.806;2022-12-18T10:00:16;-0.60;99.90
47168;DHT22;32931;47.778;17.806;2022-12-18T10:02:44;-0.50;99.90
47168;DHT22;32931;47.778;17.806;2022-12-18T10:05:12;-0.50;99.90
47168;DHT22;32931;47.778;17.806;2022-12-18T10:13:18;-0.40;99.90
47168;DHT22;32931;47.778;17.806;2022-12-18T10:18:21;-0.30;99.90
47168;DHT22;32931;47.778;17.806;2022-12-18T10:20:53;-0.30;99.90
47168;DHT22;32931;47.778;17.806;2022-12-18T10:26:08;-0.20;99.90
47168;DHT22;32931;47.778;17.806;2022-12-18T10:28:36;-0.20;99.90
47168;DHT22;32931;47.778;17.806;2022-12-18T10:31:16;-0.20;99.90
47168;DHT22;32931;47.778;17.806;2022-12-18T10:33:44;-0.10;99.90
47168;DHT22;32931;47.778;17.806;2022-12-18T10:36:11;-0.10;99.90
47168;DHT22;32931;47.778;17.806;2022-12-18T10:38:38;-0.10;99.90
47168;DHT22;32931;47.778;17.806;2022-12-18T10:41:08;-0.10;99.90
47168;DHT22;32931;47.778;17.806;2022-12-18T10:46:37;0.00;99.90
47168;DHT22;32931;47.778;17.806;2022-12-18T10:49:04;0.00;99.90
47168;DHT22;32931;47.778;17.806;2022-12-18T10:51:33;0.00;99.90
47168;DHT22;32931;47.778;17.806;2022-12-18T10:54:31;0.10;99.90
47168;DHT22;32931;47.778;17.806;2022-12-18T10:57:34;0.10;99.90
47168;DHT22;32931;47.778;17.806;2022-12-18T11:00:21;0.10;99.90
47168;DHT22;32931;47.778;17.806;2022-12-18T11:02:48;0.20;99.90
47168;DHT22;32931;47.778;17.806;2022-12-18T11:05:32;0.20;99.90
47168;DHT22;32931;47.778;17.806;2022-12-18T11:07:59;0.20;99.90
47168;DHT22;32931;47.778;17.806;2022-12-18T11:10:32;0.30;99.90
47168;DHT22;32931;47.778;17.806;2022-12-18T11:13:12;0.30;99.90
47168;DHT22;32931;47.778;17.806;2022-12-18T11:15:42;0.30;99.90
47168;DHT22;32931;47.778;17.806;2022-12-18T11:18:30;0.40;99.90
47168;DHT22;32931;47.778;17.806;2022-12-18T11:21:09;0.40;99.90
47168;DHT22;32931;47.778;17.806;2022-12-18T11:23:37;0.40;99.90
47168;DHT22;32931;47.778;17.806;2022-12-18T11:26:10;0.50;99.90
47168;DHT22;32931;47.778;17.806;2022-12-18T11:28:39;0.50;99.90
47168;DHT22;32931;47.778;17.806;2022-12-18T11:31:27;0.50;99.90
47168;DHT22;32931;47.778;17.806;2022-12-18T11:34:14;0.60;99.90
47168;DHT22;32931;47.778;17.806;2022-12-18T11:36:47;0.60;99.90
47168;DHT22;32931;47.778;17.806;2022-12-18T11:39:35;0.60;99.90
47168;DHT22;32931;47.778;17.806;2022-12-18T11:42:14;0.60;99.90
47168;DHT22;32931;47.778;17.806;2022-12-18T11:44:57;0.60;99.90
47168;DHT22;32931;47.778;17.806;2022-12-18T11:47:27;0.60;99.90
47168;DHT22;32931;47.778;17.806;2022-12-18T11:50:03;0.60;99.90
47168;DHT22;32931;47.778;17.806;2022-12-18T11:52:39;0.70;99.90
47168;DHT22;32931;47.778;17.806;2022-12-18T11:55:31;0.70;99.90
47168;DHT22;32931;47.778;17.806;2022-12-18T12:03:43;0.80;99.90
47168;DHT22;32931;47.778;17.806;2022-12-18T12:06:31;0.80;99.90
47168;DHT22;32931;47.778;17.806;2022-12-18T12:21:13;0.90;99.90
47168;DHT22;32931;47.778;17.806;2022-12-18T12:23:53;0.90;99.90
47168;DHT22;32931;47.778;17.806;2022-12-18T12:39:35;1.00;99.90
47168;DHT22;32931;47.778;17.806;2022-12-18T12:42:04;1.00;99.90
47168;DHT22;32931;47.778;17.806;2022-12-18T12:45:01;1.10;99.90
47168;DHT22;32931;47.778;17.806;2022-12-18T12:47:40;1.00;99.90
47168;DHT22;32931;47.778;17.806;2022-12-18T12:50:15;1.10;99.90
47168;DHT22;32931;47.778;17.806;2022-12-18T12:52:45;1.10;99.90
47168;DHT22;32931;47.778;17.806;2022-12-18T12:55:18;1.20;99.90
47168;DHT22;32931;47.778;17.806;2022-12-18T12:57:54;1.20;99.90
47168;DHT22;32931;47.778;17.806;2022-12-18T13:00:21;1.20;99.90
47168;DHT22;32931;47.778;17.806;2022-12-18T13:03:06;1.20;99.90
47168;DHT22;32931;47.778;17.806;2022-12-18T13:05:48;1.20;99.90
47168;DHT22;32931;47.778;17.806;2022-12-18T13:08:25;1.20;99.90
47168;DHT22;32931;47.778;17.806;2022-12-18T13:10:53;1.20;99.90
47168;DHT22;32931;47.778;17.806;2022-12-18T13:13:50;1.20;99.90
47168;DHT22;32931;47.778;17.806;2022-12-18T13:16:19;1.20;99.90
47168;DHT22;32931;47.778;17.806;2022-12-18T13:18:54;1.20;99.90
47168;DHT22;32931;47.778;17.806;2022-12-18T13:21:33;1.30;99.90
47168;DHT22;32931;47.778;17.806;2022-12-18T13:24:26;1.30;99.90
47168;DHT22;32931;47.778;17.806;2022-12-18T13:26:54;1.30;99.90
47168;DHT22;32931;47.778;17.806;2022-12-18T13:32:22;1.30;99.90
47168;DHT22;32931;47.778;17.806;2022-12-18T13:35:03;1.30;99.90
47168;DHT22;32931;47.778;17.806;2022-12-18T13:37:39;1.40;99.90
47168;DHT22;32931;47.778;17.806;2022-12-18T13:46:16;1.30;99.90
47168;DHT22;32931;47.778;17.806;2022-12-18T13:49:00;1.30;99.90
47168;DHT22;32931;47.778;17.806;2022-12-18T13:51:27;1.30;99.90
47168;DHT22;32931;47.778;17.806;2022-12-18T13:54:18;1.40;99.90
47168;DHT22;32931;47.778;17.806;2022-12-18T13:56:47;1.30;99.90
47168;DHT22;32931;47.778;17.806;2022-12-18T14:01:57;1.30;99.90
47168;DHT22;32931;47.778;17.806;2022-12-18T14:04:29;1.30;99.90
47168;DHT22;32931;47.778;17.806;2022-12-18T14:07:06;1.30;99.90
47168;DHT22;32931;47.778;17.806;2022-12-18T14:09:42;1.30;99.90
47168;DHT22;32931;47.778;17.806;2022-12-18T14:17:57;1.20;99.90
47168;DHT22;32931;47.778;17.806;2022-12-18T14:20:25;1.20;99.90
47168;DHT22;32931;47.778;17.806;2022-12-18T14:22:52;1.20;99.90
47168;DHT22;32931;47.778;17.806;2022-12-18T14:25:19;1.20;99.90
47168;DHT22;32931;47.778;17.806;2022-12-18T14:30:36;1.10;99.90
47168;DHT22;32931;47.778;17.806;2022-12-18T14:33:04;1.10;99.90
47168;DHT22;32931;47.778;17.806;2022-12-18T14:35:32;1.10;99.90
47168;DHT22;32931;47.778;17.806;2022-12-18T14:40:52;1.00;99.90
47168;DHT22;32931;47.778;17.806;2022-12-18T14:43:18;0.90;99.90
47168;DHT22;32931;47.778;17.806;2022-12-18T14:45:45;0.90;99.90
47168;DHT22;32931;47.778;17.806;2022-12-18T14:48:41;0.90;99.90
47168;DHT22;32931;47.778;17.806;2022-12-18T14:51:17;0.90;99.90
47168;DHT22;32931;47.778;17.806;2022-12-18T14:53:48;0.80;99.90
47168;DHT22;32931;47.778;17.806;2022-12-18T14:59:13;0.70;99.90
47168;DHT22;32931;47.778;17.806;2022-12-18T15:02:01;0.70;99.90
47168;DHT22;32931;47.778;17.806;2022-12-18T15:04:33;0.60;99.90
47168;DHT22;32931;47.778;17.806;2022-12-18T15:07:22;0.60;99.90
47168;DHT22;32931;47.778;17.806;2022-12-18T15:10:03;0.50;99.90
47168;DHT22;32931;47.778;17.806;2022-12-18T15:12:36;0.50;99.90
47168;DHT22;32931;47.778;17.806;2022-12-18T15:15:04;0.40;99.90
47168;DHT22;32931;47.778;17.806;2022-12-18T15:17:31;0.30;99.90
47168;DHT22;32931;47.778;17.806;2022-12-18T15:20:02;0.30;99.90
47168;DHT22;32931;47.778;17.806;2022-12-18T15:22:33;0.20;99.90
47168;DHT22;32931;47.778;17.806;2022-12-18T15:25:00;0.20;99.90
47168;DHT22;32931;47.778;17.806;2022-12-18T15:27:36;0.20;99.90
47168;DHT22;32931;47.778;17.806;2022-12-18T15:32:34;0.10;99.90
47168;DHT22;32931;47.778;17.806;2022-12-18T15:37:35;0.00;99.90
47168;DHT22;32931;47.778;17.806;2022-12-18T15:40:01;0.00;99.90
47168;DHT22;32931;47.778;17.806;2022-12-18T15:42:29;-0.10;99.90
47168;DHT22;32931;47.778;17.806;2022-12-18T15:45:14;-0.10;99.90
47168;DHT22;32931;47.778;17.806;2022-12-18T15:47:40;-0.10;99.90
47168;DHT22;32931;47.778;17.806;2022-12-18T15:50:10;-0.10;99.90
47168;DHT22;32931;47.778;17.806;2022-12-18T15:52:41;-0.20;99.90
47168;DHT22;32931;47.778;17.806;2022-12-18T15:55:18;-0.20;99.90
47168;DHT22;32931;47.778;17.806;2022-12-18T15:58:04;-0.20;99.90
47168;DHT22;32931;47.778;17.806;2022-12-18T16:00:32;-0.30;99.90
47168;DHT22;32931;47.778;17.806;2022-12-18T16:02:59;-0.30;99.90
47168;DHT22;32931;47.778;17.806;2022-12-18T16:05:28;-0.30;99.90
47168;DHT22;32931;47.778;17.806;2022-12-18T16:07:55;-0.40;99.90
47168;DHT22;32931;47.778;17.806;2022-12-18T16:10:21;-0.40;99.90
47168;DHT22;32931;47.778;17.806;2022-12-18T16:12:47;-0.40;99.90
47168;DHT22;32931;47.778;17.806;2022-12-18T16:15:14;-0.40;99.90
47168;DHT22;32931;47.778;17.806;2022-12-18T16:17:46;-0.40;99.90
47168;DHT22;32931;47.778;17.806;2022-12-18T16:20:16;-0.50;99.90
47168;DHT22;32931;47.778;17.806;2022-12-18T16:22:44;-0.50;99.90
47168;DHT22;32931;47.778;17.806;2022-12-18T16:27:43;-0.50;99.90
47168;DHT22;32931;47.778;17.806;2022-12-18T16:30:17;-0.50;99.90
47168;DHT22;32931;47.778;17.806;2022-12-18T16:32:43;-0.50;99.90
47168;DHT22;32931;47.778;17.806;2022-12-18T16:35:14;-0.50;99.90
47168;DHT22;32931;47.778;17.806;2022-12-18T16:37:41;-0.50;99.90
47168;DHT22;32931;47.778;17.806;2022-12-18T16:40:09;-0.50;99.90
47168;DHT22;32931;47.778;17.806;2022-12-18T16:42:37;-0.50;99.90
47168;DHT22;32931;47.778;17.806;2022-12-18T16:45:04;-0.50;99.90
47168;DHT22;32931;47.778;17.806;2022-12-18T16:47:31;-0.60;99.90
47168;DHT22;32931;47.778;17.806;2022-12-18T16:49:57;-0.60;99.90
47168;DHT22;32931;47.778;17.806;2022-12-18T16:52:23;-0.60;99.90
47168;DHT22;32931;47.778;17.806;2022-12-18T16:54:49;-0.60;99.90
47168;DHT22;32931;47.778;17.806;2022-12-18T16:57:18;-0.60;99.90
47168;DHT22;32931;47.778;17.806;2022-12-18T16:59:44;-0.60;99.90
47168;DHT22;32931;47.778;17.806;2022-12-18T17:02:16;-0.70;99.90
47168;DHT22;32931;47.778;17.806;2022-12-18T17:04:43;-0.70;99.90
47168;DHT22;32931;47.778;17.806;2022-12-18T17:07:10;-0.70;99.90
47168;DHT22;32931;47.778;17.806;2022-12-18T17:09:36;-0.70;99.90
47168;DHT22;32931;47.778;17.806;2022-12-18T17:12:03;-0.70;99.90
47168;DHT22;32931;47.778;17.806;2022-12-18T17:14:31;-0.80;99.90
47168;DHT22;32931;47.778;17.806;2022-12-18T17:16:57;-0.80;99.90
47168;DHT22;32931;47.778;17.806;2022-12-18T17:19:25;-0.80;99.90
47168;DHT22;32931;47.778;17.806;2022-12-18T17:21:51;-0.80;99.90
47168;DHT22;32931;47.778;17.806;2022-12-18T17:24:18;-0.80;99.90
47168;DHT22;32931;47.778;17.806;2022-12-18T17:26:45;-0.80;99.90
47168;DHT22;32931;47.778;17.806;2022-12-18T17:29:18;-0.80;99.90
47168;DHT22;32931;47.778;17.806;2022-12-18T17:31:45;-0.90;99.90
47168;DHT22;32931;47.778;17.806;2022-12-18T17:34:12;-0.90;99.90
47168;DHT22;32931;47.778;17.806;2022-12-18T17:36:39;-1.00;99.90
47168;DHT22;32931;47.778;17.806;2022-12-18T17:39:06;-1.00;99.90
47168;DHT22;32931;47.778;17.806;2022-12-18T17:41:33;-1.00;99.90